Time;durP1;ratioP1;P1;durP2;ratioP2;P2;SDS_P1;SDS_P2;PMS_P1;PMS_P2;Temp;Humidity;BMP_temperature;BMP_pressure;BME280_temperature;BME280_humidity;BME280_pressure;Samples;Min_cycle;Max_cycle;Signal;HPM_P1;HPM_P2
2022/01/15 00:00:28;;;;;;;11.50;3.20;;;;;;;;;;5135775;27;20564;-68
2022/01/15 00:03:11;;;;;;;9.80;3.07;;;;;;;;;;5134689;27;20236;-68
2022/01/15 00:05:38;;;;;;;7.17;2.17;;;;;;;;;;5135527;27;20270;-68
2022/01/15 00:08:06;;;;;;;9.63;2.30;;;;;;;;;;5135332;27;20262;-68
2022/01/15 00:10:34;;;;;;;11.17;2.73;;;;;;;;;;5135487;27;20225;-68
2022/01/15 00:13:02;;;;;;;8.30;2.20;;;;;;;;;;5135437;27;20236;-68
2022/01/15 00:15:35;;;;;;;11.57;2.97;;;;;;;;;;5135346;27;20209;-68
2022/01/15 00:18:10;;;;;;;7.17;2.30;;;;;;;;;;5135506;27;20273;-68
2022/01/15 00:20:38;;;;;;;9.57;2.30;;;;;;;;;;5135210;27;20609;-68
2022/01/15 00:23:05;;;;;;;9.07;2.60;;;;;;;;;;5135133;27;20205;-68
2022/01/15 00:25:33;;;;;;;12.63;2.87;;;;;;;;;;5134218;27;20209;-68
2022/01/15 00:28:01;;;;;;;10.50;2.80;;;;;;;;;;5135423;27;20216;-68
2022/01/15 00:30:29;;;;;;;10.43;2.57;;;;;;;;;;5135114;27;20572;-68
2022/01/15 00:32:56;;;;;;;10.97;2.73;;;;;;;;;;5135229;27;20205;-68
2022/01/15 00:35:26;;;;;;;6.03;2.07;;;;;;;;;;5135281;27;20209;-68
2022/01/15 00:37:54;;;;;;;6.67;2.67;;;;;;;;;;5134911;27;20270;-68
2022/01/15 00:40:21;;;;;;;12.43;3.13;;;;;;;;;;5134901;27;20663;-68
2022/01/15 00:42:49;;;;;;;7.13;2.93;;;;;;;;;;5134987;27;20304;-68
2022/01/15 00:45:20;;;;;;;10.60;3.37;;;;;;;;;;5135137;27;20205;-68
2022/01/15 00:47:49;;;;;;;7.80;2.43;;;;;;;;;;5135231;27;20197;-69
2022/01/15 00:50:16;;;;;;;8.43;2.17;;;;;;;;;;5134892;27;20232;-68
2022/01/15 00:52:44;;;;;;;7.13;2.17;;;;;;;;;;5134892;27;20217;-68
2022/01/15 00:55:15;;;;;;;6.73;2.43;;;;;;;;;;5134597;27;20241;-68
2022/01/15 00:57:43;;;;;;;15.33;3.67;;;;;;;;;;5135087;27;20190;-68
2022/01/15 01:00:13;;;;;;;9.60;3.03;;;;;;;;;;5135009;27;20232;-68
2022/01/15 01:02:41;;;;;;;10.23;3.40;;;;;;;;;;5134978;27;20194;-68
2022/01/15 01:05:10;;;;;;;15.20;2.97;;;;;;;;;;5135025;27;20220;-68
2022/01/15 01:07:37;;;;;;;10.30;2.97;;;;;;;;;;5134885;27;20205;-68
2022/01/15 01:23:21;;;;;;;14.20;2.50;;;;;;;;;;5138739;27;20213;-69
2022/01/15 01:25:53;;;;;;;7.00;2.73;;;;;;;;;;5138426;27;20308;-68
2022/01/15 01:28:31;;;;;;;9.77;2.73;;;;;;;;;;5138516;27;20197;-68
2022/01/15 01:31:05;;;;;;;7.53;2.43;;;;;;;;;;5138248;27;20225;-68
2022/01/15 01:33:37;;;;;;;6.23;2.60;;;;;;;;;;5138387;27;20221;-69
2022/01/15 01:38:54;;;;;;;10.17;2.73;;;;;;;;;;5138515;27;20272;-68
2022/01/15 01:41:23;;;;;;;9.20;3.13;;;;;;;;;;5138327;27;20276;-68
2022/01/15 01:44:00;;;;;;;5.40;2.30;;;;;;;;;;5138064;27;20309;-69
2022/01/15 01:48:56;;;;;;;8.30;3.20;;;;;;;;;;5138252;27;20212;-68
2022/01/15 01:51:31;;;;;;;7.30;2.77;;;;;;;;;;5138094;27;20210;-68
2022/01/15 01:54:01;;;;;;;12.23;3.10;;;;;;;;;;5137925;27;20224;-68
2022/01/15 01:56:29;;;;;;;11.80;3.27;;;;;;;;;;5138078;27;20197;-69
2022/01/15 01:58:58;;;;;;;10.73;3.17;;;;;;;;;;5138102;27;20213;-68
2022/01/15 02:01:25;;;;;;;8.33;3.00;;;;;;;;;;5137909;27;20212;-69
2022/01/15 02:03:58;;;;;;;10.10;3.27;;;;;;;;;;5137803;27;20318;-68
2022/01/15 02:06:25;;;;;;;5.10;2.53;;;;;;;;;;5137655;27;20216;-69
2022/01/15 02:08:55;;;;;;;9.03;2.60;;;;;;;;;;5137732;27;20205;-68
2022/01/15 02:11:24;;;;;;;10.20;2.53;;;;;;;;;;5137559;27;20233;-68
2022/01/15 02:13:51;;;;;;;9.37;2.93;;;;;;;;;;5137620;27;20236;-68
2022/01/15 02:16:19;;;;;;;9.00;2.33;;;;;;;;;;5136518;27;20261;-68
2022/01/15 02:18:47;;;;;;;10.50;2.90;;;;;;;;;;5137619;27;20205;-68
2022/01/15 02:23:44;;;;;;;9.57;2.80;;;;;;;;;;5137531;27;20694;-68
2022/01/15 02:26:17;;;;;;;8.70;2.47;;;;;;;;;;5137828;27;20209;-68
2022/01/15 02:28:52;;;;;;;9.97;2.80;;;;;;;;;;5137580;27;20200;-68
2022/01/15 02:31:20;;;;;;;7.97;2.23;;;;;;;;;;5137104;27;20728;-68
2022/01/15 02:33:49;;;;;;;9.80;2.03;;;;;;;;;;5137308;27;20236;-68
2022/01/15 02:36:19;;;;;;;6.33;2.43;;;;;;;;;;5137107;27;20606;-68
2022/01/15 02:38:47;;;;;;;7.67;2.23;;;;;;;;;;5137311;27;20233;-68
2022/01/15 02:41:15;;;;;;;14.67;2.17;;;;;;;;;;5137171;27;20214;-68
2022/01/15 02:43:42;;;;;;;7.27;2.30;;;;;;;;;;5135660;27;20241;-68
2022/01/15 02:48:00;;;;;;;6.03;2.27;;;;;;;;;;5136979;27;20242;-68
2022/01/15 02:49:04;;;;;;;8.80;2.47;;;;;;;;;;5133842;27;20216;-68
2022/01/15 02:51:33;;;;;;;6.30;2.40;;;;;;;;;;5136709;27;20193;-68
2022/01/15 02:54:01;;;;;;;10.30;1.93;;;;;;;;;;5136893;27;20229;-68
2022/01/15 02:56:39;;;;;;;6.63;2.00;;;;;;;;;;5136630;27;20664;-68
2022/01/15 02:59:10;;;;;;;10.63;2.80;;;;;;;;;;5136630;27;20672;-68
2022/01/15 03:01:37;;;;;;;10.53;2.70;;;;;;;;;;5136559;27;20197;-68
2022/01/15 03:04:04;;;;;;;11.33;2.40;;;;;;;;;;5136389;27;20206;-68
2022/01/15 03:06:32;;;;;;;6.50;2.20;;;;;;;;;;5136663;27;20308;-68
2022/01/15 03:08:59;;;;;;;5.87;1.97;;;;;;;;;;5136425;27;20595;-69
2022/01/15 03:11:28;;;;;;;7.97;2.00;;;;;;;;;;5136675;27;20241;-68
2022/01/15 03:13:55;;;;;;;8.87;2.90;;;;;;;;;;5136481;27;20235;-68
2022/01/15 03:16:23;;;;;;;9.37;2.50;;;;;;;;;;5136294;27;20213;-68
2022/01/15 03:18:51;;;;;;;11.03;2.00;;;;;;;;;;5136375;27;20215;-68
2022/01/15 03:21:18;;;;;;;5.70;2.27;;;;;;;;;;5136140;27;20208;-68
2022/01/15 03:23:45;;;;;;;8.27;2.80;;;;;;;;;;5135147;27;20214;-68
2022/01/15 03:26:14;;;;;;;8.73;2.43;;;;;;;;;;5136459;27;20205;-68
2022/01/15 03:28:43;;;;;;;3.97;2.17;;;;;;;;;;5136064;27;20546;-68
2022/01/15 03:31:11;;;;;;;9.07;2.27;;;;;;;;;;5136056;27;20216;-69
2022/01/15 03:33:39;;;;;;;7.60;2.23;;;;;;;;;;5136125;27;20210;-68
2022/01/15 03:36:08;;;;;;;13.73;2.00;;;;;;;;;;5136128;27;20209;-68
2022/01/15 03:38:35;;;;;;;9.00;1.87;;;;;;;;;;5135834;27;20213;-68
2022/01/15 03:41:03;;;;;;;10.37;2.40;;;;;;;;;;5136011;27;20205;-68
2022/01/15 03:43:30;;;;;;;5.80;2.20;;;;;;;;;;5133857;27;20247;-68
2022/01/15 03:45:58;;;;;;;9.87;2.30;;;;;;;;;;5135763;27;20678;-68
2022/01/15 03:48:27;;;;;;;12.33;2.90;;;;;;;;;;5135533;27;20776;-68
2022/01/15 03:50:55;;;;;;;8.77;2.30;;;;;;;;;;5135609;27;20209;-69
2022/01/15 03:53:23;;;;;;;8.83;2.77;;;;;;;;;;5135503;27;20538;-69
2022/01/15 03:55:50;;;;;;;9.80;2.20;;;;;;;;;;5135399;27;20699;-68
2022/01/15 03:58:19;;;;;;;6.00;2.20;;;;;;;;;;5135893;27;20208;-68
2022/01/15 04:00:47;;;;;;;8.47;2.30;;;;;;;;;;5135863;27;20565;-69
2022/01/15 04:03:15;;;;;;;6.93;2.17;;;;;;;;;;5135400;27;20655;-69
2022/01/15 04:05:42;;;;;;;9.83;2.30;;;;;;;;;;5135616;27;20194;-68
2022/01/15 04:08:10;;;;;;;10.83;2.40;;;;;;;;;;5135647;27;20206;-68
2022/01/15 04:10:37;;;;;;;10.10;2.40;;;;;;;;;;5135520;27;20296;-69
2022/01/15 04:13:04;;;;;;;10.27;2.40;;;;;;;;;;5135596;27;20212;-68
2022/01/15 04:15:32;;;;;;;9.13;2.70;;;;;;;;;;5135446;27;20244;-68
2022/01/15 04:17:59;;;;;;;7.07;1.90;;;;;;;;;;5135469;27;20209;-68
2022/01/15 04:20:26;;;;;;;14.03;2.80;;;;;;;;;;5135462;27;20208;-68
2022/01/15 04:22:54;;;;;;;9.93;2.53;;;;;;;;;;5135037;27;20682;-68
2022/01/15 04:25:22;;;;;;;8.63;2.20;;;;;;;;;;5135427;27;20213;-68
2022/01/15 04:27:49;;;;;;;10.27;2.20;;;;;;;;;;5135449;27;20202;-68
2022/01/15 04:30:18;;;;;;;10.03;2.73;;;;;;;;;;5117220;27;20300;-68
2022/01/15 04:32:45;;;;;;;7.10;1.90;;;;;;;;;;5133880;28;20205;-68
2022/01/15 04:35:13;;;;;;;7.67;1.80;;;;;;;;;;5135137;27;20237;-68
2022/01/15 04:37:50;;;;;;;6.87;2.00;;;;;;;;;;5135001;27;20212;-68
2022/01/15 04:40:18;;;;;;;6.50;2.37;;;;;;;;;;5135272;27;20198;-68
2022/01/15 04:42:45;;;;;;;14.17;2.67;;;;;;;;;;5134907;27;20237;-68
2022/01/15 04:45:13;;;;;;;10.67;3.00;;;;;;;;;;5134962;27;20228;-68
2022/01/15 04:47:40;;;;;;;12.10;2.63;;;;;;;;;;5135227;27;20215;-69
2022/01/15 04:50:11;;;;;;;7.73;2.00;;;;;;;;;;5134866;27;20209;-69
2022/01/15 04:52:39;;;;;;;9.53;2.60;;;;;;;;;;5134989;27;20209;-68
2022/01/15 04:55:08;;;;;;;7.30;2.30;;;;;;;;;;5137533;27;20580;-68
2022/01/15 04:57:36;;;;;;;14.30;2.50;;;;;;;;;;5138949;27;20205;-68
2022/01/15 05:00:09;;;;;;;8.97;2.67;;;;;;;;;;5139196;27;20201;-68
2022/01/15 05:02:37;;;;;;;11.90;2.60;;;;;;;;;;5138876;27;20707;-68
2022/01/15 05:05:05;;;;;;;10.70;2.67;;;;;;;;;;5138901;27;20734;-68
2022/01/15 05:07:32;;;;;;;10.87;2.40;;;;;;;;;;5138746;27;20300;-68
2022/01/15 05:10:00;;;;;;;8.97;2.70;;;;;;;;;;5138998;27;20212;-68
2022/01/15 05:12:42;;;;;;;5.57;2.10;;;;;;;;;;5138611;27;20670;-69
2022/01/15 05:15:12;;;;;;;10.00;2.30;;;;;;;;;;5114991;27;20585;-68
2022/01/15 05:17:40;;;;;;;7.73;2.50;;;;;;;;;;5113920;28;20237;-68
2022/01/15 05:20:09;;;;;;;7.43;2.20;;;;;;;;;;5116810;28;20613;-68
2022/01/15 05:22:36;;;;;;;9.37;2.77;;;;;;;;;;5114775;28;20214;-68
2022/01/15 05:25:07;;;;;;;13.40;2.77;;;;;;;;;;5109631;28;20218;-68
2022/01/15 05:27:40;;;;;;;5.47;1.93;;;;;;;;;;5109247;28;20215;-68
2022/01/15 05:30:08;;;;;;;9.43;2.07;;;;;;;;;;5115355;28;20209;-68
2022/01/15 05:32:35;;;;;;;9.87;2.90;;;;;;;;;;5115639;28;20218;-68
2022/01/15 05:35:04;;;;;;;11.80;2.53;;;;;;;;;;5108476;28;20238;-67
2022/01/15 05:37:31;;;;;;;10.67;2.40;;;;;;;;;;5101354;28;20222;-67
2022/01/15 05:39:58;;;;;;;6.13;2.03;;;;;;;;;;5108656;28;20201;-68
2022/01/15 05:42:26;;;;;;;8.63;2.83;;;;;;;;;;5111734;28;20210;-68
2022/01/15 05:44:53;;;;;;;8.37;2.40;;;;;;;;;;5115100;28;20224;-67
2022/01/15 05:47:21;;;;;;;10.07;2.53;;;;;;;;;;5109524;28;20218;-68
2022/01/15 05:49:49;;;;;;;17.30;2.60;;;;;;;;;;5113223;28;20210;-68
2022/01/15 05:52:17;;;;;;;16.87;2.37;;;;;;;;;;5115699;28;20214;-68
2022/01/15 05:54:44;;;;;;;12.60;2.63;;;;;;;;;;5112442;28;20241;-68
2022/01/15 05:57:11;;;;;;;11.47;2.90;;;;;;;;;;5100974;28;20210;-68
2022/01/15 05:59:38;;;;;;;7.90;2.50;;;;;;;;;;5101977;28;20214;-68
2022/01/15 06:02:08;;;;;;;7.67;2.43;;;;;;;;;;5100927;28;20209;-68
2022/01/15 06:04:35;;;;;;;9.33;2.60;;;;;;;;;;5104702;28;20210;-68
2022/01/15 06:07:03;;;;;;;11.60;2.90;;;;;;;;;;5108128;28;20322;-68
2022/01/15 06:09:30;;;;;;;16.33;2.93;;;;;;;;;;5111485;28;20217;-68
2022/01/15 06:12:00;;;;;;;10.13;3.60;;;;;;;;;;5102716;28;20207;-68
2022/01/15 06:14:29;;;;;;;11.03;2.70;;;;;;;;;;5096476;28;20238;-68
2022/01/15 06:16:59;;;;;;;7.47;2.30;;;;;;;;;;5096330;28;20237;-68
2022/01/15 06:19:27;;;;;;;10.17;2.77;;;;;;;;;;5096611;28;20199;-68
2022/01/15 06:21:56;;;;;;;9.53;3.23;;;;;;;;;;5096557;28;20240;-68
2022/01/15 06:24:23;;;;;;;7.03;2.23;;;;;;;;;;5096517;28;20212;-68
2022/01/15 06:26:50;;;;;;;14.93;3.17;;;;;;;;;;5096032;28;20272;-68
2022/01/15 06:29:18;;;;;;;12.43;3.20;;;;;;;;;;5096315;28;20206;-68
2022/01/15 06:31:45;;;;;;;12.33;2.80;;;;;;;;;;5096324;28;20211;-69
2022/01/15 06:34:12;;;;;;;13.40;3.70;;;;;;;;;;5095766;28;20214;-68
2022/01/15 06:36:39;;;;;;;7.67;2.27;;;;;;;;;;5093563;28;20234;-68
2022/01/15 06:39:06;;;;;;;11.30;2.60;;;;;;;;;;5115604;28;20233;-71
2022/01/15 06:41:34;;;;;;;11.33;3.33;;;;;;;;;;5115426;28;20230;-68
2022/01/15 06:44:01;;;;;;;11.07;2.80;;;;;;;;;;5115217;28;20711;-68
2022/01/15 06:46:28;;;;;;;8.40;3.07;;;;;;;;;;5115758;28;20291;-68
2022/01/15 06:48:56;;;;;;;9.67;3.27;;;;;;;;;;5115107;27;20253;-66
2022/01/15 06:51:24;;;;;;;14.13;3.07;;;;;;;;;;5115407;28;20318;-68
2022/01/15 06:53:51;;;;;;;10.97;2.90;;;;;;;;;;5115057;27;20233;-65
2022/01/15 06:56:19;;;;;;;18.03;3.20;;;;;;;;;;5115748;28;20275;-68
2022/01/15 06:58:46;;;;;;;13.13;2.97;;;;;;;;;;5115162;27;20229;-68
2022/01/15 07:01:15;;;;;;;17.97;4.30;;;;;;;;;;5115754;28;20268;-68
2022/01/15 07:03:43;;;;;;;13.00;3.10;;;;;;;;;;5114964;27;20230;-67
2022/01/15 07:06:10;;;;;;;18.20;4.30;;;;;;;;;;5114121;28;20265;-67
2022/01/15 07:08:37;;;;;;;16.70;3.10;;;;;;;;;;5113546;28;20260;-67
2022/01/15 07:11:05;;;;;;;10.93;3.40;;;;;;;;;;5115583;28;20230;-68
2022/01/15 07:13:33;;;;;;;14.83;3.77;;;;;;;;;;5115103;27;20226;-69
2022/01/15 07:16:00;;;;;;;16.97;4.20;;;;;;;;;;5115045;28;20369;-69
2022/01/15 07:18:28;;;;;;;11.37;3.83;;;;;;;;;;5114320;27;20704;-69
2022/01/15 07:20:55;;;;;;;16.23;3.33;;;;;;;;;;5115170;27;20265;-68
2022/01/15 07:23:22;;;;;;;18.00;3.87;;;;;;;;;;5114177;27;20249;-70
2022/01/15 07:25:50;;;;;;;17.87;3.80;;;;;;;;;;5115089;28;20229;-68
2022/01/15 07:28:20;;;;;;;23.50;7.43;;;;;;;;;;5114978;28;20260;-68
2022/01/15 07:30:47;;;;;;;23.50;7.17;;;;;;;;;;5114807;28;20238;-68
2022/01/15 07:33:15;;;;;;;17.40;4.67;;;;;;;;;;5113617;28;20236;-67
2022/01/15 07:35:43;;;;;;;12.57;3.60;;;;;;;;;;5114525;28;20234;-67
2022/01/15 07:38:14;;;;;;;13.83;4.83;;;;;;;;;;5112724;28;20226;-67
2022/01/15 07:40:42;;;;;;;15.80;4.63;;;;;;;;;;5114843;28;20283;-67
2022/01/15 07:43:10;;;;;;;9.67;3.40;;;;;;;;;;5114244;28;20249;-67
2022/01/15 07:45:42;;;;;;;11.47;3.83;;;;;;;;;;5113623;28;20233;-67
2022/01/15 07:48:09;;;;;;;12.47;3.40;;;;;;;;;;5114577;28;20234;-67
2022/01/15 07:50:37;;;;;;;14.00;5.53;;;;;;;;;;5114506;28;20244;-67
2022/01/15 07:53:04;;;;;;;13.53;4.83;;;;;;;;;;5113593;27;20237;-67
2022/01/15 07:55:31;;;;;;;17.90;3.70;;;;;;;;;;5114760;28;20271;-67
2022/01/15 07:58:05;;;;;;;14.33;4.07;;;;;;;;;;5114506;27;20233;-67
2022/01/15 08:00:32;;;;;;;11.00;3.33;;;;;;;;;;5114562;28;20234;-64
2022/01/15 08:03:00;;;;;;;20.20;7.43;;;;;;;;;;5114260;27;20237;-68
2022/01/15 08:05:28;;;;;;;20.13;6.57;;;;;;;;;;5114258;28;20784;-66
2022/01/15 08:07:55;;;;;;;30.47;14.50;;;;;;;;;;5113564;27;20268;-69
2022/01/15 08:10:23;;;;;;;23.80;7.63;;;;;;;;;;5114315;28;20241;-67
2022/01/15 08:12:50;;;;;;;14.80;4.50;;;;;;;;;;5113816;27;20234;-68
2022/01/15 08:15:19;;;;;;;13.33;4.10;;;;;;;;;;5114349;28;20245;-71
2022/01/15 08:17:46;;;;;;;17.60;4.03;;;;;;;;;;5113804;27;20310;-70
2022/01/15 08:20:14;;;;;;;12.23;3.40;;;;;;;;;;5113154;28;20312;-68
2022/01/15 08:22:45;;;;;;;14.33;4.93;;;;;;;;;;5111945;28;20278;-71
2022/01/15 08:25:16;;;;;;;15.93;4.17;;;;;;;;;;5113896;28;20312;-71
2022/01/15 08:27:49;;;;;;;9.80;3.20;;;;;;;;;;5112495;28;20300;-69
2022/01/15 08:30:19;;;;;;;13.60;3.17;;;;;;;;;;5114237;28;20232;-69
2022/01/15 08:32:54;;;;;;;17.47;5.03;;;;;;;;;;5114649;28;20206;-68
2022/01/15 08:35:25;;;;;;;14.50;3.13;;;;;;;;;;5114654;28;20225;-70
2022/01/15 08:37:59;;;;;;;14.83;3.53;;;;;;;;;;5114883;28;20194;-70
2022/01/15 08:40:33;;;;;;;16.30;3.30;;;;;;;;;;5114581;28;20278;-71
2022/01/15 08:43:05;;;;;;;9.20;2.73;;;;;;;;;;5114428;28;20241;-69
2022/01/15 08:45:38;;;;;;;8.63;3.10;;;;;;;;;;5115206;28;20206;-69
2022/01/15 08:48:11;;;;;;;7.50;2.90;;;;;;;;;;5113251;28;20640;-70
2022/01/15 08:50:43;;;;;;;5.03;2.40;;;;;;;;;;5114499;28;20550;-71
2022/01/15 08:53:13;;;;;;;15.73;3.33;;;;;;;;;;5113793;28;20210;-67
2022/01/15 08:55:41;;;;;;;17.47;3.80;;;;;;;;;;5114153;28;20243;-67
2022/01/15 08:58:08;;;;;;;12.77;4.30;;;;;;;;;;5114322;28;20648;-67
2022/01/15 09:00:35;;;;;;;13.67;4.67;;;;;;;;;;5112331;28;20715;-67
2022/01/15 09:03:06;;;;;;;20.27;6.13;;;;;;;;;;5114272;28;20314;-67
2022/01/15 09:05:35;;;;;;;11.73;4.00;;;;;;;;;;5113970;28;20202;-68
2022/01/15 09:08:03;;;;;;;9.53;3.20;;;;;;;;;;5114179;28;20225;-67
2022/01/15 09:10:31;;;;;;;14.37;3.80;;;;;;;;;;5106282;28;20270;-68
2022/01/15 09:12:58;;;;;;;15.37;3.17;;;;;;;;;;5111964;28;20230;-68
2022/01/15 09:15:29;;;;;;;601.37;247.13;;;;;;;;;;5113286;28;20605;-67
2022/01/15 09:17:56;;;;;;;34.40;14.13;;;;;;;;;;5113046;28;20241;-68
2022/01/15 09:20:23;;;;;;;16.27;4.57;;;;;;;;;;5113150;27;20316;-68
2022/01/15 09:22:50;;;;;;;16.40;5.80;;;;;;;;;;5113351;28;20230;-67
2022/01/15 09:25:18;;;;;;;15.47;3.73;;;;;;;;;;5112429;27;20712;-67
2022/01/15 09:30:26;;;;;;;15.93;3.10;;;;;;;;;;5113112;27;20756;-67
2022/01/15 09:32:55;;;;;;;10.97;3.00;;;;;;;;;;5113295;28;20234;-69
2022/01/15 09:35:25;;;;;;;11.47;3.63;;;;;;;;;;5113104;27;20261;-70
2022/01/15 09:37:54;;;;;;;10.37;3.50;;;;;;;;;;5113558;28;20234;-70
2022/01/15 09:40:41;;;;;;;12.77;3.67;;;;;;;;;;5112942;27;20234;-67
2022/01/15 09:43:09;;;;;;;8.00;2.70;;;;;;;;;;5116636;28;20249;-67
2022/01/15 09:45:40;;;;;;;14.83;4.20;;;;;;;;;;5117246;27;20226;-67
2022/01/15 09:48:07;;;;;;;8.03;2.60;;;;;;;;;;5116469;28;20229;-67
2022/01/15 09:50:43;;;;;;;11.47;2.40;;;;;;;;;;5116514;27;20636;-67
2022/01/15 09:53:14;;;;;;;9.07;3.20;;;;;;;;;;5116707;28;20225;-68
2022/01/15 09:55:41;;;;;;;12.17;3.20;;;;;;;;;;5113272;28;20238;-67
2022/01/15 09:58:09;;;;;;;18.27;3.70;;;;;;;;;;5115784;28;20230;-67
2022/01/15 10:00:36;;;;;;;9.50;2.90;;;;;;;;;;5115083;27;20332;-68
2022/01/15 10:03:04;;;;;;;9.13;2.90;;;;;;;;;;5116550;28;20720;-67
2022/01/15 10:05:31;;;;;;;12.50;3.83;;;;;;;;;;5112687;28;20785;-67
2022/01/15 10:08:06;;;;;;;11.70;3.47;;;;;;;;;;5095851;28;20229;-67
2022/01/15 10:10:38;;;;;;;10.70;3.13;;;;;;;;;;5101069;28;20264;-67
2022/01/15 10:13:22;;;;;;;20.23;3.20;;;;;;;;;;5114750;28;20253;-68
2022/01/15 10:16:11;;;;;;;10.37;3.57;;;;;;;;;;5115819;27;20320;-68
2022/01/15 10:18:45;;;;;;;9.00;3.07;;;;;;;;;;5116234;28;20263;-67
2022/01/15 10:21:17;;;;;;;11.27;3.83;;;;;;;;;;5116263;28;20283;-67
2022/01/15 10:23:51;;;;;;;10.87;3.10;;;;;;;;;;5116699;28;20283;-68
2022/01/15 10:26:20;;;;;;;10.40;3.80;;;;;;;;;;5114481;28;20260;-68
2022/01/15 10:28:48;;;;;;;16.17;3.80;;;;;;;;;;5115035;28;20229;-68
2022/01/15 10:31:18;;;;;;;16.07;3.93;;;;;;;;;;5115771;27;20666;-68
2022/01/15 10:33:45;;;;;;;11.37;3.70;;;;;;;;;;5116057;28;20252;-68
2022/01/15 10:36:19;;;;;;;9.97;2.97;;;;;;;;;;5115662;27;20251;-68
2022/01/15 10:38:47;;;;;;;7.93;3.50;;;;;;;;;;5115862;28;20290;-69
2022/01/15 10:41:34;;;;;;;8.33;3.00;;;;;;;;;;5115120;27;20241;-69
2022/01/15 10:44:31;;;;;;;10.67;3.30;;;;;;;;;;5114418;28;20295;-67
2022/01/15 10:47:10;;;;;;;4.37;2.40;;;;;;;;;;5115525;27;20303;-67
2022/01/15 10:49:40;;;;;;;10.27;2.77;;;;;;;;;;5115966;28;20586;-68
2022/01/15 10:52:23;;;;;;;10.43;2.73;;;;;;;;;;5115188;27;20294;-70
2022/01/15 10:55:07;;;;;;;12.63;3.73;;;;;;;;;;5114094;28;20229;-69
2022/01/15 10:57:37;;;;;;;12.30;4.43;;;;;;;;;;5115600;28;20250;-69
2022/01/15 11:00:12;;;;;;;13.13;4.33;;;;;;;;;;5115695;28;20241;-69
2022/01/15 11:02:44;;;;;;;14.17;3.93;;;;;;;;;;5115671;28;20236;-69
2022/01/15 11:05:25;;;;;;;12.33;2.93;;;;;;;;;;5115504;28;20233;-69
2022/01/15 11:07:54;;;;;;;12.23;3.73;;;;;;;;;;5111943;28;20272;-69
2022/01/15 11:10:21;;;;;;;8.07;2.93;;;;;;;;;;5100823;28;20227;-69
2022/01/15 11:12:48;;;;;;;14.10;4.13;;;;;;;;;;5115230;28;20265;-69
2022/01/15 11:15:16;;;;;;;14.77;4.77;;;;;;;;;;5115549;28;20237;-68
2022/01/15 11:17:46;;;;;;;16.27;4.33;;;;;;;;;;5113826;28;20615;-69
2022/01/15 11:20:15;;;;;;;13.70;4.07;;;;;;;;;;5115053;28;20242;-70
2022/01/15 11:22:43;;;;;;;8.33;3.10;;;;;;;;;;5115302;28;20230;-72
2022/01/15 11:25:13;;;;;;;12.10;3.73;;;;;;;;;;5106212;28;20241;-68
2022/01/15 11:27:41;;;;;;;14.20;3.50;;;;;;;;;;5115169;27;20286;-66
2022/01/15 11:30:08;;;;;;;12.60;3.17;;;;;;;;;;5113191;28;20234;-65
2022/01/15 11:32:36;;;;;;;8.43;2.67;;;;;;;;;;5097019;28;20242;-66
2022/01/15 11:35:06;;;;;;;11.17;3.90;;;;;;;;;;5114705;28;20230;-68
2022/01/15 11:37:53;;;;;;;12.47;3.90;;;;;;;;;;5114706;28;20290;-67
2022/01/15 11:40:34;;;;;;;13.17;3.77;;;;;;;;;;5114762;28;20234;-67
2022/01/15 11:43:24;;;;;;;12.90;3.57;;;;;;;;;;5114041;28;20249;-67
2022/01/15 11:45:54;;;;;;;11.57;3.90;;;;;;;;;;5114853;28;20236;-71
2022/01/15 11:48:25;;;;;;;14.10;4.97;;;;;;;;;;5113503;28;20265;-67
2022/01/15 11:51:21;;;;;;;8.30;2.43;;;;;;;;;;5114658;28;20328;-67
2022/01/15 11:53:54;;;;;;;17.87;5.50;;;;;;;;;;5104320;28;20240;-67
2022/01/15 11:56:27;;;;;;;16.10;5.10;;;;;;;;;;5114404;28;20263;-68
2022/01/15 11:58:56;;;;;;;10.73;2.80;;;;;;;;;;5114227;27;20233;-68
2022/01/15 12:01:44;;;;;;;8.43;2.80;;;;;;;;;;5114495;28;20810;-67
2022/01/15 12:04:38;;;;;;;8.50;3.20;;;;;;;;;;5113743;27;20285;-68
2022/01/15 12:07:05;;;;;;;12.20;2.53;;;;;;;;;;5114545;28;20260;-67
2022/01/15 12:09:42;;;;;;;4.17;2.00;;;;;;;;;;5113612;27;20237;-67
2022/01/15 12:12:17;;;;;;;7.23;2.50;;;;;;;;;;5114433;28;20233;-68
2022/01/15 12:14:53;;;;;;;5.90;2.30;;;;;;;;;;5114436;28;20222;-67
2022/01/15 12:17:26;;;;;;;9.30;2.57;;;;;;;;;;5114350;27;20275;-66
2022/01/15 12:19:54;;;;;;;8.73;2.80;;;;;;;;;;5114701;28;20233;-68
2022/01/15 12:22:45;;;;;;;10.63;2.80;;;;;;;;;;5113296;27;20230;-67
2022/01/15 12:25:18;;;;;;;11.27;2.80;;;;;;;;;;5114009;28;20238;-67
2022/01/15 12:27:53;;;;;;;10.40;3.00;;;;;;;;;;5113893;28;20229;-65
2022/01/15 12:30:25;;;;;;;11.27;3.27;;;;;;;;;;5113005;28;20225;-67
2022/01/15 12:32:53;;;;;;;10.67;3.27;;;;;;;;;;5113999;28;20655;-70
2022/01/15 12:35:26;;;;;;;5.97;2.10;;;;;;;;;;5113646;28;20229;-70
2022/01/15 12:38:21;;;;;;;10.80;3.63;;;;;;;;;;5110620;28;20245;-68
2022/01/15 12:40:52;;;;;;;7.43;3.47;;;;;;;;;;5104125;28;20234;-66
2022/01/15 12:43:23;;;;;;;10.03;2.90;;;;;;;;;;5113967;28;20242;-66
2022/01/15 12:45:59;;;;;;;7.67;2.47;;;;;;;;;;5113882;28;20229;-70
2022/01/15 12:48:30;;;;;;;11.33;4.53;;;;;;;;;;5095782;28;20234;-66
2022/01/15 12:50:58;;;;;;;10.23;3.43;;;;;;;;;;5113683;28;20757;-68
2022/01/15 12:53:37;;;;;;;9.37;2.53;;;;;;;;;;5113430;28;20225;-69
2022/01/15 12:56:10;;;;;;;11.13;3.33;;;;;;;;;;5113443;28;20252;-68
2022/01/15 12:58:39;;;;;;;11.00;3.00;;;;;;;;;;5113660;28;20240;-68
2022/01/15 13:01:08;;;;;;;11.40;3.40;;;;;;;;;;5113523;28;20785;-67
2022/01/15 13:03:38;;;;;;;12.00;3.60;;;;;;;;;;5114687;28;20286;-71
2022/01/15 13:06:07;;;;;;;11.17;3.47;;;;;;;;;;5113784;28;20314;-70
2022/01/15 13:08:41;;;;;;;8.93;2.77;;;;;;;;;;5113635;28;20230;-70
2022/01/15 13:11:20;;;;;;;10.83;3.07;;;;;;;;;;5113711;28;20302;-73
2022/01/15 13:13:52;;;;;;;10.03;4.00;;;;;;;;;;5113338;28;20233;-71
2022/01/15 13:16:30;;;;;;;10.80;3.27;;;;;;;;;;5116540;28;20241;-71
2022/01/15 13:19:01;;;;;;;6.17;2.53;;;;;;;;;;5113152;27;20743;-71
2022/01/15 13:21:33;;;;;;;9.63;2.60;;;;;;;;;;5097622;28;20239;-71
2022/01/15 13:24:08;;;;;;;9.77;2.77;;;;;;;;;;5095010;28;20238;-72
2022/01/15 13:26:46;;;;;;;8.97;3.60;;;;;;;;;;5111299;28;20237;-71
2022/01/15 13:29:17;;;;;;;10.77;3.20;;;;;;;;;;5118696;27;20315;-76
2022/01/15 13:31:45;;;;;;;11.83;3.30;;;;;;;;;;5118852;28;20241;-71
2022/01/15 13:34:16;;;;;;;9.00;2.50;;;;;;;;;;5118341;28;20225;-74
2022/01/15 13:36:47;;;;;;;9.33;2.77;;;;;;;;;;5116527;28;20238;-71
2022/01/15 13:39:15;;;;;;;9.20;2.33;;;;;;;;;;5116918;28;20233;-72
2022/01/15 13:41:43;;;;;;;7.37;2.83;;;;;;;;;;5117785;28;20234;-70
2022/01/15 13:44:15;;;;;;;21.70;4.10;;;;;;;;;;5116750;28;20248;-73
2022/01/15 13:46:48;;;;;;;9.90;2.97;;;;;;;;;;5116568;28;20236;-69
2022/01/15 13:49:19;;;;;;;11.80;3.57;;;;;;;;;;5117275;28;20241;-70
2022/01/15 13:54:35;;;;;;;12.77;3.40;;;;;;;;;;5080569;28;20248;-68
2022/01/15 13:57:08;;;;;;;9.00;3.00;;;;;;;;;;5115246;28;20233;-68
2022/01/15 13:59:35;;;;;;;9.67;2.30;;;;;;;;;;5115499;28;20225;-71
2022/01/15 14:02:04;;;;;;;8.90;2.63;;;;;;;;;;5098570;28;20233;-68
2022/01/15 14:04:39;;;;;;;9.83;3.10;;;;;;;;;;5116477;27;20595;-66
2022/01/15 14:07:11;;;;;;;7.87;3.13;;;;;;;;;;5115852;28;20603;-70
2022/01/15 14:09:42;;;;;;;7.07;2.67;;;;;;;;;;5116503;27;20229;-66
2022/01/15 14:12:10;;;;;;;7.80;2.80;;;;;;;;;;5116517;28;20234;-67
2022/01/15 14:14:54;;;;;;;8.50;3.00;;;;;;;;;;5116378;27;20237;-67
2022/01/15 14:17:23;;;;;;;14.07;3.27;;;;;;;;;;5116549;28;20249;-66
2022/01/15 14:22:32;;;;;;;13.70;3.93;;;;;;;;;;5116141;28;20240;-67
2022/01/15 14:25:13;;;;;;;12.10;2.90;;;;;;;;;;5116047;27;20241;-67
2022/01/15 14:27:41;;;;;;;8.03;3.00;;;;;;;;;;5116050;28;20230;-67
2022/01/15 14:30:09;;;;;;;9.70;2.80;;;;;;;;;;5116179;27;20237;-67
2022/01/15 14:32:36;;;;;;;9.53;3.23;;;;;;;;;;5116137;28;20582;-66
2022/01/15 14:35:04;;;;;;;11.30;3.27;;;;;;;;;;5116056;28;20261;-66
2022/01/15 14:37:31;;;;;;;14.47;3.53;;;;;;;;;;5115526;28;20716;-67
2022/01/15 14:39:59;;;;;;;8.30;2.50;;;;;;;;;;5114390;28;20222;-69
2022/01/15 14:42:27;;;;;;;9.97;2.67;;;;;;;;;;5116123;28;20237;-66
2022/01/15 14:44:56;;;;;;;8.43;2.33;;;;;;;;;;5115601;27;20749;-67
2022/01/15 14:47:24;;;;;;;7.27;2.57;;;;;;;;;;5115942;28;20291;-68
2022/01/15 14:49:51;;;;;;;8.70;2.70;;;;;;;;;;5115420;28;20288;-69
2022/01/15 14:52:19;;;;;;;11.03;3.10;;;;;;;;;;5097502;28;20358;-71
2022/01/15 14:54:46;;;;;;;12.50;3.53;;;;;;;;;;5114421;28;20237;-72
2022/01/15 14:57:13;;;;;;;9.00;3.00;;;;;;;;;;5080939;28;20238;-71
2022/01/15 14:59:40;;;;;;;8.93;2.83;;;;;;;;;;5080962;28;20256;-70
2022/01/15 15:02:08;;;;;;;9.03;3.40;;;;;;;;;;5114466;28;20733;-71
2022/01/15 15:04:36;;;;;;;12.47;3.03;;;;;;;;;;5097477;28;20361;-67
2022/01/15 15:07:03;;;;;;;7.93;2.83;;;;;;;;;;5114797;28;20724;-70
2022/01/15 15:09:30;;;;;;;10.40;2.70;;;;;;;;;;5064159;27;20234;-67
2022/01/15 15:11:59;;;;;;;9.43;3.17;;;;;;;;;;5115120;28;20648;-66
2022/01/15 15:14:27;;;;;;;16.63;5.07;;;;;;;;;;5115290;28;20237;-77
2022/01/15 15:16:54;;;;;;;12.43;4.37;;;;;;;;;;5097067;28;20316;-75
2022/01/15 15:19:23;;;;;;;15.23;5.23;;;;;;;;;;5115027;28;20238;-75
2022/01/15 15:21:50;;;;;;;10.70;4.03;;;;;;;;;;5114583;28;20244;-66